METAR Data

Data at: 0913 UTC 23 Jul 2019

METAR for:KSAN (San Diego Intl Arpt, CA, US)
Text:KSAN 230851Z 29004KT 10SM FEW010 BKN170 BKN230 21/18 A2998 RMK AO2 SLP150 T02110183 58007
Temperature: 21.1°C ( 70°F)
Dewpoint: 18.3°C ( 65°F) [RH = 84%]
Pressure (altimeter):29.98 inches Hg (1015.3 mb) [Sea level pressure: 1015.0 mb]
Winds:from the WNW (290 degrees) at 5 MPH (4 knots; 2.1 m/s)
Visibility:10 or more sm (16+ km)
Ceiling:17000 feet AGL
Clouds: few clouds at 1000 feet AGL, broken clouds at 17000 feet AGL, broken clouds at 23000 feet AGL